createdAt,value
2023-04-09T00:00:28.783Z,102477.41
2023-04-09T00:02:57.991Z,102474.00
2023-04-09T00:05:25.750Z,102469.72
2023-04-09T00:07:53.418Z,102475.00
2023-04-09T00:10:21.240Z,102473.38
2023-04-09T00:12:48.990Z,102472.59
2023-04-09T00:15:27.746Z,102474.13
2023-04-09T00:17:59.896Z,102472.50
2023-04-09T00:20:27.752Z,102483.00
2023-04-09T00:22:56.372Z,102477.78
2023-04-09T00:25:24.235Z,102475.16
2023-04-09T00:27:51.924Z,102463.91
2023-04-09T00:30:19.561Z,102471.66
2023-04-09T00:32:47.305Z,102469.25
2023-04-09T00:35:19.764Z,102469.88
2023-04-09T00:37:47.663Z,102460.41
2023-04-09T00:40:15.442Z,102466.53
2023-04-09T00:42:43.247Z,102461.50
2023-04-09T00:45:11.622Z,102458.94
2023-04-09T00:47:39.355Z,102460.00
2023-04-09T00:50:07.842Z,102467.00
2023-04-09T00:52:37.290Z,102455.53
2023-04-09T00:55:06.518Z,102456.38
2023-04-09T00:57:34.394Z,102455.53
2023-04-09T01:00:02.598Z,102465.16
2023-04-09T01:02:30.905Z,102452.72
2023-04-09T01:04:58.811Z,102450.06
2023-04-09T01:07:44.124Z,102456.22
2023-04-09T01:10:18.571Z,102444.78
2023-04-09T01:12:53.174Z,102447.44
2023-04-09T01:15:25.006Z,102453.66
2023-04-09T01:17:55.625Z,102430.97
2023-04-09T01:20:31.942Z,102440.59
2023-04-09T01:23:06.953Z,102451.25
2023-04-09T01:25:45.553Z,102446.03
2023-04-09T01:28:18.667Z,102455.75
2023-04-09T01:30:50.356Z,102424.75
2023-04-09T01:33:20.126Z,102441.88
2023-04-09T01:35:48.785Z,102440.94
2023-04-09T01:38:18.025Z,102428.72
2023-04-09T01:40:45.677Z,102428.72
2023-04-09T01:43:13.699Z,102438.28
2023-04-09T01:45:43.274Z,102434.72
2023-04-09T01:48:11.404Z,102431.91
2023-04-09T01:50:39.334Z,102427.47
2023-04-09T01:53:07.496Z,102431.13
2023-04-09T01:55:35.388Z,102429.56
2023-04-09T01:58:03.091Z,102427.09
2023-04-09T02:00:34.050Z,102427.88
2023-04-09T02:03:08.178Z,102426.88
2023-04-09T02:05:39.128Z,102427.72
2023-04-09T02:08:08.200Z,102427.72
2023-04-09T02:10:36.844Z,102432.94
2023-04-09T02:13:06.879Z,102428.50
2023-04-09T02:15:36.422Z,102412.19
2023-04-09T02:18:05.616Z,102424.47
2023-04-09T02:20:33.284Z,102425.47
2023-04-09T02:23:00.972Z,102415.91
2023-04-09T02:25:28.776Z,102422.59
2023-04-09T02:27:56.398Z,102418.25
2023-04-09T02:30:24.205Z,102429.75
2023-04-09T02:32:52.016Z,102418.41
2023-04-09T02:35:21.050Z,102422.91
2023-04-09T02:37:48.976Z,102412.34
2023-04-09T02:40:16.628Z,102411.47
2023-04-09T02:42:44.295Z,102414.91
2023-04-09T02:45:12.379Z,102406.91
2023-04-09T02:47:40.207Z,102408.69
2023-04-09T02:50:09.125Z,102413.91
2023-04-09T02:52:38.353Z,102388.44
2023-04-09T02:55:06.876Z,102404.09
2023-04-09T02:57:34.549Z,102397.97
2023-04-09T03:00:02.561Z,102396.19
2023-04-09T03:02:30.490Z,102395.41
2023-04-09T03:04:58.315Z,102387.31
2023-04-09T03:07:25.979Z,102390.91
2023-04-09T03:09:55.142Z,102394.56
2023-04-09T03:12:22.818Z,102393.81
2023-04-09T03:14:50.429Z,102393.00
2023-04-09T03:17:18.157Z,102385.16
2023-04-09T03:19:45.866Z,102388.66
2023-04-09T03:22:13.617Z,102381.59
2023-04-09T03:24:41.240Z,102395.81
2023-04-09T03:27:10.278Z,102387.97
2023-04-09T03:29:37.969Z,102391.56
2023-04-09T03:32:05.884Z,102392.41
2023-04-09T03:34:33.564Z,102396.97
2023-04-09T03:37:01.280Z,102396.97
2023-04-09T03:39:30.777Z,102386.41
2023-04-09T03:41:59.019Z,102397.91
2023-04-09T03:44:28.108Z,102390.94
2023-04-09T03:46:55.960Z,102389.31
2023-04-09T03:49:23.690Z,102388.59
2023-04-09T03:51:51.376Z,102390.31
2023-04-09T03:54:19.062Z,102391.41
2023-04-09T03:56:46.718Z,102390.63
2023-04-09T03:59:14.448Z,102389.06
2023-04-09T04:01:43.598Z,102400.94
2023-04-09T04:04:11.966Z,102391.53
2023-04-09T04:06:39.731Z,102393.41
2023-04-09T04:09:07.333Z,102385.03
2023-04-09T04:11:35.040Z,102393.56
2023-04-09T04:14:02.765Z,102394.47
2023-04-09T04:16:30.564Z,102394.47
2023-04-09T04:18:59.755Z,102390.13
2023-04-09T04:21:27.422Z,102390.13
2023-04-09T04:23:55.071Z,102397.19
2023-04-09T04:26:22.744Z,102398.31
2023-04-09T04:28:50.766Z,102398.22
2023-04-09T04:31:18.715Z,102400.13
2023-04-09T04:33:46.388Z,102399.44
2023-04-09T04:36:15.919Z,102395.28
2023-04-09T04:38:43.730Z,102385.88
2023-04-09T04:41:12.048Z,102391.41
2023-04-09T04:43:41.404Z,102397.72
2023-04-09T04:46:09.149Z,102397.03
2023-04-09T04:48:36.823Z,102397.16
2023-04-09T04:51:04.838Z,102398.41
2023-04-09T04:53:33.861Z,102406.31
2023-04-09T04:56:01.548Z,102392.50
2023-04-09T04:58:30.464Z,102403.03
2023-04-09T05:00:58.228Z,102390.94
2023-04-09T05:03:27.465Z,102404.06
2023-04-09T05:05:55.482Z,102403.34
2023-04-09T05:08:23.201Z,102392.13
2023-04-09T05:10:55.937Z,102401.13
2023-04-09T05:13:23.832Z,102398.63
2023-04-09T05:15:51.658Z,102399.72
2023-04-09T05:18:19.579Z,102394.59
2023-04-09T05:20:47.339Z,102392.81
2023-04-09T05:23:15.033Z,102405.06
2023-04-09T05:25:42.796Z,102402.41
2023-04-09T05:28:12.215Z,102403.34
2023-04-09T05:30:39.906Z,102402.50
2023-04-09T05:33:07.628Z,102402.41
2023-04-09T05:35:35.297Z,102398.94
2023-04-09T05:38:03.059Z,102399.63
2023-04-09T05:40:30.778Z,102394.34
2023-04-09T05:42:58.540Z,102402.19
2023-04-09T05:45:28.608Z,102397.84
2023-04-09T05:47:56.679Z,102398.00
2023-04-09T05:50:24.777Z,102401.50
2023-04-09T05:52:52.473Z,102392.81
2023-04-09T05:55:20.406Z,102401.41
2023-04-09T05:57:48.268Z,102401.34
2023-04-09T06:00:18.338Z,102393.44
2023-04-09T06:02:47.565Z,102391.66
2023-04-09T06:05:15.475Z,102389.81
2023-04-09T06:07:43.159Z,102393.22
2023-04-09T06:10:10.954Z,102402.06
2023-04-09T06:12:38.706Z,102390.59
2023-04-09T06:15:07.341Z,102396.63
2023-04-09T06:17:35.186Z,102399.16
2023-04-09T06:20:04.777Z,102389.50
2023-04-09T06:22:32.443Z,102396.56
2023-04-09T06:25:00.169Z,102400.84
2023-04-09T06:27:27.854Z,102407.94
2023-04-09T06:29:55.637Z,102403.50
2023-04-09T06:32:23.441Z,102409.53
2023-04-09T06:34:51.275Z,102410.31
2023-04-09T06:37:20.591Z,102400.69
2023-04-09T06:40:00.537Z,102410.19
2023-04-09T06:42:29.218Z,102406.63
2023-04-09T06:44:56.970Z,102414.28
2023-04-09T06:47:24.842Z,102417.72
2023-04-09T06:49:52.637Z,102409.81
2023-04-09T06:52:21.703Z,102405.53
2023-04-09T06:54:49.432Z,102414.84
2023-04-09T06:57:17.141Z,102391.38
2023-04-09T06:59:45.188Z,102405.72
2023-04-09T07:02:13.107Z,102411.72
2023-04-09T07:04:41.441Z,102407.13
2023-04-09T07:07:09.504Z,102411.41
2023-04-09T07:09:38.567Z,102408.72
2023-04-09T07:12:06.501Z,102409.41
2023-04-09T07:14:34.324Z,102419.75
2023-04-09T07:17:02.063Z,102416.97
2023-04-09T07:19:29.874Z,102406.44
2023-04-09T07:21:57.594Z,102406.25
2023-04-09T07:24:25.274Z,102420.81
2023-04-09T07:26:54.536Z,102417.06
2023-04-09T07:29:22.400Z,102414.22
2023-04-09T07:31:50.267Z,102418.31
2023-04-09T07:34:18.136Z,102412.13
2023-04-09T07:36:45.889Z,102415.25
2023-04-09T07:39:13.587Z,102406.31
2023-04-09T07:41:41.654Z,102422.78
2023-04-09T07:44:11.254Z,102425.94
2023-04-09T07:46:39.915Z,102418.72
2023-04-09T07:49:07.689Z,102413.22
2023-04-09T07:51:35.417Z,102415.59
2023-04-09T07:54:03.659Z,102419.81
2023-04-09T07:56:31.391Z,102423.91
2023-04-09T07:58:59.165Z,102420.09
2023-04-09T08:01:28.278Z,102419.59
2023-04-09T08:03:56.128Z,102411.44
2023-04-09T08:06:24.056Z,102415.56
2023-04-09T08:08:52.037Z,102418.75
2023-04-09T08:11:25.171Z,102420.19
2023-04-09T08:13:53.056Z,102417.13
2023-04-09T08:16:23.611Z,102417.66
2023-04-09T08:18:53.074Z,102417.16
2023-04-09T08:21:21.218Z,102415.22
2023-04-09T08:23:51.367Z,102418.38
2023-04-09T08:26:19.222Z,102416.91
2023-04-09T08:28:46.935Z,102420.03
2023-04-09T08:31:16.791Z,102418.66
2023-04-09T08:33:44.557Z,102414.63
2023-04-09T08:36:13.906Z,102411.56
2023-04-09T08:38:42.051Z,102405.06
2023-04-09T08:41:09.813Z,102409.81
2023-04-09T08:43:56.166Z,102412.13
2023-04-09T08:46:26.096Z,102410.84
2023-04-09T08:48:56.389Z,102414.94
2023-04-09T08:51:25.795Z,102409.69
2023-04-09T08:53:56.926Z,102411.84
2023-04-09T08:56:24.890Z,102403.78
2023-04-09T08:58:53.401Z,102408.03
2023-04-09T09:01:22.658Z,102406.84
2023-04-09T09:03:59.170Z,102405.69
2023-04-09T09:06:33.434Z,102403.94
2023-04-09T09:09:06.124Z,102412.28
2023-04-09T09:11:34.358Z,102403.56
2023-04-09T09:14:03.664Z,102400.38
2023-04-09T09:16:34.896Z,102402.47
2023-04-09T09:19:03.211Z,102402.66
2023-04-09T09:21:33.325Z,102408.38
2023-04-09T09:24:01.116Z,102397.78
2023-04-09T09:26:30.039Z,102407.03
2023-04-09T09:28:59.410Z,102403.28
2023-04-09T09:31:27.594Z,102396.72
2023-04-09T09:33:55.454Z,102392.25
2023-04-09T09:36:34.601Z,102392.63
2023-04-09T09:39:10.118Z,102385.53
2023-04-09T09:41:38.403Z,102381.66
2023-04-09T09:44:07.308Z,102380.13
2023-04-09T09:46:36.963Z,102381.41
2023-04-09T09:49:04.772Z,102375.53
2023-04-09T09:51:36.875Z,102379.56
2023-04-09T09:54:04.980Z,102379.28
2023-04-09T09:56:37.128Z,102383.47
2023-04-09T09:59:08.877Z,102375.28
2023-04-09T10:01:37.286Z,102376.38
2023-04-09T10:04:07.238Z,102374.28
2023-04-09T10:06:37.229Z,102371.34
2023-04-09T10:09:06.344Z,102374.72
2023-04-09T10:11:34.980Z,102373.47
2023-04-09T10:14:03.558Z,102370.94
2023-04-09T10:16:32.054Z,102371.78
2023-04-09T10:19:00.524Z,102360.53
2023-04-09T10:21:36.662Z,102360.31
2023-04-09T10:24:08.074Z,102353.47
2023-04-09T10:26:37.180Z,102356.88
2023-04-09T10:29:08.228Z,102342.13
2023-04-09T10:31:57.267Z,102342.97
2023-04-09T10:34:28.014Z,102333.63
2023-04-09T10:36:59.731Z,102341.06
2023-04-09T10:39:30.330Z,102339.66
2023-04-09T10:41:59.553Z,102333.81
2023-04-09T10:44:28.622Z,102329.75
2023-04-09T10:46:56.958Z,102334.97
2023-04-09T10:49:26.196Z,102323.06
2023-04-09T10:51:54.333Z,102322.22
2023-04-09T10:54:47.012Z,102316.66
2023-04-09T10:57:17.901Z,102316.13
2023-04-09T10:59:47.151Z,102320.03
2023-04-09T11:02:53.196Z,102315.13
2023-04-09T11:05:26.522Z,102308.28
2023-04-09T11:07:57.049Z,102301.91
2023-04-09T11:10:26.796Z,102311.78
2023-04-09T11:12:54.857Z,102294.22
2023-04-09T11:15:22.788Z,102290.59
2023-04-09T11:17:51.514Z,102296.47
2023-04-09T11:20:22.063Z,102292.59
2023-04-09T11:22:51.216Z,102296.28
2023-04-09T11:25:21.766Z,102291.47
2023-04-09T11:27:52.071Z,102289.06
2023-04-09T11:30:20.785Z,102289.53
2023-04-09T11:33:20.320Z,102291.28
2023-04-09T11:35:48.828Z,102286.34
2023-04-09T11:38:24.360Z,102262.72
2023-04-09T11:40:52.593Z,102293.13
2023-04-09T11:43:23.983Z,102295.22
2023-04-09T11:45:51.794Z,102291.69
2023-04-09T11:48:21.641Z,102291.97
2023-04-09T11:50:49.402Z,102280.00
2023-04-09T11:53:18.561Z,102279.53
2023-04-09T11:55:48.673Z,102278.31
2023-04-09T11:58:16.656Z,102279.53
2023-04-09T12:05:51.314Z,102278.81
2023-04-09T12:08:23.993Z,102271.44
2023-04-09T12:10:53.671Z,102272.72
2023-04-09T12:13:21.911Z,102269.47
2023-04-09T12:15:50.543Z,102263.56
2023-04-09T12:18:18.229Z,102264.53
2023-04-09T12:20:49.742Z,102255.34
2023-04-09T12:23:17.753Z,102262.78
2023-04-09T12:25:47.640Z,102263.38
2023-04-09T12:28:18.247Z,102272.31
2023-04-09T12:30:46.404Z,102264.31
2023-04-09T12:33:14.148Z,102270.75
2023-04-09T12:35:42.043Z,102253.44
2023-04-09T12:38:11.186Z,102257.91
2023-04-09T12:40:39.092Z,102271.97
2023-04-09T12:43:07.072Z,102268.41
2023-04-09T12:45:34.819Z,102267.66
2023-04-09T12:48:02.625Z,102266.34
2023-04-09T12:50:30.736Z,102266.47
2023-04-09T12:52:58.427Z,102262.75
2023-04-09T12:55:27.915Z,102267.69
2023-04-09T12:57:55.619Z,102267.22
2023-04-09T13:00:23.278Z,102249.03
2023-04-09T13:02:52.590Z,102248.44
2023-04-09T13:05:20.623Z,102257.66
2023-04-09T13:07:48.273Z,102243.16
2023-04-09T13:10:16.191Z,102236.84
2023-04-09T13:12:45.439Z,102244.72
2023-04-09T13:15:13.237Z,102243.72
2023-04-09T13:17:41.020Z,102241.19
2023-04-09T13:20:09.988Z,102231.63
2023-04-09T13:22:37.668Z,102237.19
2023-04-09T13:25:07.295Z,102223.03
2023-04-09T13:27:34.918Z,102220.25
2023-04-09T13:30:04.570Z,102232.22
2023-04-09T13:32:32.336Z,102238.38
2023-04-09T13:35:00.187Z,102228.72
2023-04-09T13:37:27.966Z,102219.75
2023-04-09T13:39:56.244Z,102224.84
2023-04-09T13:42:23.923Z,102220.00
2023-04-09T13:44:51.618Z,102225.34
2023-04-09T13:47:21.228Z,102218.06
2023-04-09T13:49:51.394Z,102221.44
2023-04-09T13:52:19.110Z,102219.75
2023-04-09T13:54:46.835Z,102221.06
2023-04-09T13:57:14.536Z,102226.28
2023-04-09T13:59:42.702Z,102218.28
2023-04-09T14:02:10.496Z,102222.41
2023-04-09T14:04:39.941Z,102215.16
2023-04-09T14:07:08.431Z,102217.81
2023-04-09T14:09:36.425Z,102209.31
2023-04-09T14:12:04.216Z,102199.84
2023-04-09T14:14:31.876Z,102190.66
2023-04-09T14:16:59.622Z,102199.09
2023-04-09T14:19:27.307Z,102189.69
2023-04-09T14:21:56.518Z,102199.84
2023-04-09T14:24:24.179Z,102199.50
2023-04-09T14:26:53.460Z,102189.19
2023-04-09T14:29:22.108Z,102183.28
2023-04-09T14:31:49.990Z,102186.06
2023-04-09T14:34:17.753Z,102188.25
2023-04-09T14:36:45.467Z,102196.25
2023-04-09T14:39:14.612Z,102182.69
2023-04-09T14:41:42.471Z,102181.63
2023-04-09T14:44:10.276Z,102165.25
2023-04-09T14:46:38.102Z,102174.66
2023-04-09T14:49:05.826Z,102178.13
2023-04-09T14:51:33.655Z,102180.91
2023-04-09T14:54:01.602Z,102185.91
2023-04-09T14:56:30.761Z,102178.03
2023-04-09T14:58:58.625Z,102180.22
2023-04-09T15:01:27.163Z,102184.22
2023-04-09T15:03:55.329Z,102185.28
2023-04-09T15:06:23.452Z,102181.13
2023-04-09T15:08:51.421Z,102178.75
2023-04-09T15:11:22.875Z,102170.97
2023-04-09T15:13:52.551Z,102166.16
2023-04-09T15:16:25.881Z,102153.41
2023-04-09T15:18:55.725Z,102150.38
2023-04-09T15:21:23.755Z,102148.94
2023-04-09T15:23:53.109Z,102156.84
2023-04-09T15:26:21.373Z,102155.78
2023-04-09T15:28:49.307Z,102164.84
2023-04-09T15:31:18.473Z,102156.63
2023-04-09T15:33:47.078Z,102155.78
2023-04-09T15:36:14.877Z,102151.53
2023-04-09T15:38:42.654Z,102161.09
2023-04-09T15:41:10.623Z,102156.00
2023-04-09T15:43:38.338Z,102146.81
2023-04-09T15:46:10.797Z,102148.00
2023-04-09T15:48:40.043Z,102140.44
2023-04-09T15:51:08.044Z,102138.38
2023-04-09T15:53:35.876Z,102140.56
2023-04-09T15:56:03.828Z,102141.41
2023-04-09T15:58:31.531Z,102144.19
2023-04-09T16:00:59.328Z,102141.28
2023-04-09T16:03:27.757Z,102129.75
2023-04-09T16:05:56.835Z,102119.09
2023-04-09T16:08:24.582Z,102108.94
2023-04-09T16:10:53.230Z,102113.69
2023-04-09T16:13:20.840Z,102113.78
2023-04-09T16:15:49.371Z,102120.22
2023-04-09T16:18:17.223Z,102114.56
2023-04-09T16:20:44.954Z,102112.50
2023-04-09T16:23:14.176Z,102114.38
2023-04-09T16:25:41.903Z,102104.22
2023-04-09T16:28:09.755Z,102095.97
2023-04-09T16:30:37.756Z,102090.16
2023-04-09T16:33:05.398Z,102084.97
2023-04-09T16:35:33.119Z,102093.09
2023-04-09T16:38:00.926Z,102082.56
2023-04-09T16:40:30.333Z,102090.66
2023-04-09T16:42:58.008Z,102097.22
2023-04-09T16:45:25.893Z,102096.72
2023-04-09T16:47:54.529Z,102096.28
2023-04-09T16:50:22.454Z,102090.94
2023-04-09T16:52:50.330Z,102100.72
2023-04-09T16:55:18.050Z,102079.19
2023-04-09T16:57:47.315Z,102092.63
2023-04-09T17:00:17.450Z,102088.88
2023-04-09T17:02:45.937Z,102101.06
2023-04-09T17:05:13.985Z,102086.56
2023-04-09T17:07:43.158Z,102090.06
2023-04-09T17:10:11.471Z,102086.09
2023-04-09T17:12:39.750Z,102091.91
2023-04-09T17:15:10.564Z,102100.16
2023-04-09T17:17:38.392Z,102096.88
2023-04-09T17:20:07.460Z,102098.81
2023-04-09T17:22:35.644Z,102096.38
2023-04-09T17:25:04.758Z,102103.50
2023-04-09T17:27:32.492Z,102100.97
2023-04-09T17:30:00.277Z,102095.91
2023-04-09T17:32:29.584Z,102104.72
2023-04-09T17:34:57.341Z,102108.59
2023-04-09T17:37:25.240Z,102118.53
2023-04-09T17:39:52.948Z,102118.03
2023-04-09T17:42:22.021Z,102116.19
2023-04-09T17:44:49.710Z,102111.72
2023-04-09T17:47:17.864Z,102111.41
2023-04-09T17:49:47.025Z,102115.28
2023-04-09T17:52:14.718Z,102116.59
2023-04-09T17:54:45.528Z,102104.59
2023-04-09T17:57:13.448Z,102106.03
2023-04-09T17:59:41.132Z,102101.81
2023-04-09T18:02:09.156Z,102108.41
2023-04-09T18:04:37.276Z,102111.19
2023-04-09T18:07:06.677Z,102112.28
2023-04-09T18:09:34.678Z,102110.56
2023-04-09T18:12:02.835Z,102103.56
2023-04-09T18:14:32.460Z,102108.28
2023-04-09T18:17:01.070Z,102106.47
2023-04-09T18:19:28.841Z,102104.25
2023-04-09T18:21:56.570Z,102102.56
2023-04-09T18:24:26.357Z,102108.97
2023-04-09T18:26:54.109Z,102107.47
2023-04-09T18:29:21.836Z,102105.06
2023-04-09T18:31:49.637Z,102109.00
2023-04-09T18:34:17.375Z,102108.38
2023-04-09T18:36:45.036Z,102114.78
2023-04-09T18:39:12.738Z,102111.72
2023-04-09T18:41:41.836Z,102118.84
2023-04-09T18:44:09.667Z,102119.28
2023-04-09T18:46:37.418Z,102126.53
2023-04-09T18:49:05.137Z,102132.28
2023-04-09T18:51:32.894Z,102128.66
2023-04-09T18:54:01.190Z,102128.66
2023-04-09T18:56:29.855Z,102127.94
2023-04-09T18:58:59.056Z,102131.66
2023-04-09T19:01:26.773Z,102131.00
2023-04-09T19:03:54.776Z,102124.00
2023-04-09T19:06:23.335Z,102128.72
2023-04-09T19:08:57.044Z,102129.75
2023-04-09T19:11:24.955Z,102132.66
2023-04-09T19:13:52.729Z,102121.28
2023-04-09T19:16:22.074Z,102119.06
2023-04-09T19:18:49.974Z,102121.72
2023-04-09T19:21:18.595Z,102120.19
2023-04-09T19:23:46.922Z,102120.66
2023-04-09T19:26:14.768Z,102115.56
2023-04-09T19:28:42.404Z,102130.00
2023-04-09T19:31:12.623Z,102118.75
2023-04-09T19:33:41.882Z,102120.66
2023-04-09T19:36:09.580Z,102121.75
2023-04-09T19:38:37.304Z,102117.47
2023-04-09T19:41:05.353Z,102123.88
2023-04-09T19:43:33.033Z,102120.91
2023-04-09T19:46:00.813Z,102129.94
2023-04-09T19:48:28.480Z,102125.66
2023-04-09T19:50:57.617Z,102116.25
2023-04-09T19:53:25.342Z,102123.47
2023-04-09T19:55:53.180Z,102130.66
2023-04-09T19:58:20.887Z,102121.97
2023-04-09T20:00:48.627Z,102124.63
2023-04-09T20:03:16.545Z,102122.91
2023-04-09T20:05:44.307Z,102115.16
2023-04-09T20:08:15.737Z,102124.28
2023-04-09T20:10:46.376Z,102126.22
2023-04-09T20:13:14.183Z,102122.28
2023-04-09T20:15:41.872Z,102123.25
2023-04-09T20:18:09.612Z,102122.47
2023-04-09T20:20:37.333Z,102123.66
2023-04-09T20:23:05.026Z,102115.81
2023-04-09T20:25:36.628Z,102115.16
2023-04-09T20:28:04.792Z,102108.16
2023-04-09T20:30:32.925Z,102106.66
2023-04-09T20:33:01.356Z,102112.81
2023-04-09T20:35:29.218Z,102100.50
2023-04-09T20:37:57.015Z,102094.56
2023-04-09T20:40:25.110Z,102091.19
2023-04-09T20:42:54.159Z,102089.69
2023-04-09T20:45:21.833Z,102081.94
2023-04-09T20:47:50.712Z,102085.75
2023-04-09T20:50:19.498Z,102081.63
2023-04-09T20:52:47.537Z,102073.34
2023-04-09T20:55:15.342Z,102079.03
2023-04-09T20:57:43.854Z,102077.50
2023-04-09T21:00:14.195Z,102084.72
2023-04-09T21:02:42.341Z,102088.50
2023-04-09T21:05:22.025Z,102087.75
2023-04-09T21:07:51.878Z,102080.88
2023-04-09T21:10:19.597Z,102092.41
2023-04-09T21:12:47.304Z,102088.06
2023-04-09T21:15:16.755Z,102079.34
2023-04-09T21:17:44.459Z,102090.81
2023-04-09T21:20:12.623Z,102081.94
2023-04-09T21:22:40.416Z,102076.81
2023-04-09T21:25:08.785Z,102070.03
2023-04-09T21:27:36.425Z,102072.97
2023-04-09T21:30:04.637Z,102064.94
2023-04-09T21:32:33.655Z,102069.59
2023-04-09T21:35:01.350Z,102072.53
2023-04-09T21:37:29.904Z,102065.75
2023-04-09T21:39:57.646Z,102067.44
2023-04-09T21:42:25.538Z,102066.78
2023-04-09T21:44:53.322Z,102072.19
2023-04-09T21:47:21.093Z,102070.88
2023-04-09T21:49:50.324Z,102078.06
2023-04-09T21:52:18.035Z,102077.34
2023-04-09T21:54:45.774Z,102076.56
2023-04-09T21:57:13.621Z,102075.81
2023-04-09T21:59:42.334Z,102071.56
2023-04-09T22:02:10.392Z,102078.56
2023-04-09T22:04:38.209Z,102072.44
2023-04-09T22:07:07.361Z,102070.72
2023-04-09T22:09:35.064Z,102080.47
2023-04-09T22:12:03.300Z,102069.22
2023-04-09T22:14:32.469Z,102077.16
2023-04-09T22:17:01.669Z,102076.41
2023-04-09T22:19:30.926Z,102060.53
2023-04-09T22:21:59.102Z,102073.88
2023-04-09T22:24:30.006Z,102078.31
2023-04-09T22:26:58.828Z,102081.91
2023-04-09T22:29:26.910Z,102086.34
2023-04-09T22:31:54.574Z,102092.69
2023-04-09T22:34:22.510Z,102100.72
2023-04-09T22:36:50.752Z,102091.09
2023-04-09T22:39:18.727Z,102085.06
2023-04-09T22:41:47.821Z,102089.47
2023-04-09T22:44:15.551Z,102093.16
2023-04-09T22:46:43.293Z,102080.03
2023-04-09T22:49:11.587Z,102089.03
2023-04-09T22:51:41.559Z,102091.75
2023-04-09T22:54:09.624Z,102097.13
2023-04-09T22:56:37.748Z,102086.75
2023-04-09T22:59:07.295Z,102085.13
2023-04-09T23:01:35.522Z,102087.72
2023-04-09T23:04:03.405Z,102082.59
2023-04-09T23:06:32.006Z,102088.94
2023-04-09T23:09:00.040Z,102081.09
2023-04-09T23:11:28.256Z,102062.69
2023-04-09T23:13:56.094Z,102069.84
2023-04-09T23:16:26.305Z,102054.19
2023-04-09T23:18:54.498Z,102061.38
2023-04-09T23:21:22.354Z,102061.44
2023-04-09T23:23:50.029Z,102058.16
2023-04-09T23:26:17.671Z,102052.13
2023-04-09T23:28:45.655Z,102053.97
2023-04-09T23:31:13.331Z,102041.59
2023-04-09T23:33:42.518Z,102047.84
2023-04-09T23:36:10.799Z,102047.94
2023-04-09T23:38:40.324Z,102033.31
2023-04-09T23:41:08.154Z,102019.91
2023-04-09T23:43:35.992Z,102026.53
2023-04-09T23:46:03.684Z,102024.03
2023-04-09T23:48:31.334Z,102023.31
2023-04-09T23:51:00.396Z,102023.19
2023-04-09T23:53:28.087Z,102025.84
2023-04-09T23:55:55.840Z,102024.25
2023-04-09T23:58:23.577Z,102021.72
